Time;durP1;ratioP1;P1;durP2;ratioP2;P2;SDS_P1;SDS_P2;PMS_P1;PMS_P2;Temp;Humidity;BMP_temperature;BMP_pressure;BME280_temperature;BME280_humidity;BME280_pressure;Samples;Min_cycle;Max_cycle;Signal;HPM_P1;HPM_P2
2022/03/15 00:01:25;;;;;;;56.28;24.15;;;;;;;3.21;43.70;99657.19;4408963;32;20154;-76
2022/03/15 00:03:52;;;;;;;59.35;23.17;;;;;;;3.46;42.94;99665.16;4409869;32;20105;-76
2022/03/15 00:06:19;;;;;;;60.33;23.95;;;;;;;3.23;43.31;99664.03;4410161;32;20098;-77
2022/03/15 00:08:48;;;;;;;;;;;;;;;3.16;43.67;99665.63;4409032;32;20148;-76
2022/03/15 00:11:15;;;;;;;54.03;23.33;;;;;;;3.12;43.49;99658.78;4410166;32;20309;-76
2022/03/15 00:13:41;;;;;;;;;;;;;;;3.06;43.77;99652.75;4410248;32;20149;-75
2022/03/15 00:16:09;;;;;;;78.10;31.40;;;;;;;3.11;44.13;99654.53;4409810;32;20289;-76
2022/03/15 00:18:37;;;;;;;108.20;44.05;;;;;;;3.71;43.37;99656.06;4408860;32;20108;-76
2022/03/15 00:21:05;;;;;;;91.43;35.88;;;;;;;3.41;44.42;99655.75;4408721;32;20114;-76
2022/03/15 00:23:32;;;;;;;85.45;32.72;;;;;;;3.21;45.08;99655.50;4408210;32;20120;-76
2022/03/15 00:26:02;;;;;;;;;;;;;;;3.04;44.85;99641.66;4410410;32;20733;-76
2022/03/15 00:28:30;;;;;;;61.08;24.60;;;;;;;2.43;47.39;99646.75;4409091;32;20351;-76
2022/03/15 00:30:57;;;;;;;80.60;30.25;;;;;;;2.70;46.38;99636.13;4409577;32;20104;-76
2022/03/15 00:33:25;;;;;;;101.18;38.10;;;;;;;3.50;44.72;99635.41;4409887;32;20125;-76
2022/03/15 00:35:53;;;;;;;138.27;46.17;;;;;;;3.74;43.62;99638.22;4409905;32;20098;-76
2022/03/15 00:38:22;;;;;;;202.05;65.50;;;;;;;3.55;44.12;99636.31;4409658;32;20432;-76
2022/03/15 00:40:49;;;;;;;148.25;53.97;;;;;;;3.23;46.27;99625.75;4409692;32;20078;-76
2022/03/15 00:43:16;;;;;;;118.82;45.67;;;;;;;3.51;45.56;99621.84;4409849;32;20385;-76
2022/03/15 00:45:43;;;;;;;;;;;;;;;3.17;46.31;99620.56;4409894;32;20086;-76
2022/03/15 00:48:10;;;;;;;57.50;22.33;;;;;;;2.88;45.90;99616.00;4409828;32;20008;-76
2022/03/15 00:50:41;;;;;;;;;;;;;;;2.90;45.93;99616.00;4409755;32;20129;-75
2022/03/15 00:53:10;;;;;;;31.50;15.25;;;;;;;2.69;46.10;99613.16;4409898;32;19996;-76
2022/03/15 00:55:37;;;;;;;22.40;10.93;;;;;;;2.39;47.32;99611.87;4409651;32;20111;-76
2022/03/15 00:58:05;;;;;;;20.92;9.68;;;;;;;2.44;46.69;99612.78;4395873;32;20128;-76
2022/03/15 01:00:35;;;;;;;19.73;8.18;;;;;;;2.48;46.25;99612.03;4409659;32;20376;-76
2022/03/15 01:03:03;;;;;;;18.98;8.18;;;;;;;2.18;46.91;99606.47;4409669;32;20097;-76
2022/03/15 01:05:30;;;;;;;18.77;8.00;;;;;;;2.36;46.30;99611.84;4409327;32;20159;-76
2022/03/15 01:07:57;;;;;;;19.08;8.25;;;;;;;2.61;45.77;99598.63;4409566;32;20165;-76
2022/03/15 01:10:24;;;;;;;;;;;;;;;2.57;45.83;99604.53;4409702;32;20074;-76
2022/03/15 01:12:51;;;;;;;30.37;8.90;;;;;;;1.73;48.11;99604.87;4409223;32;20181;-76
2022/03/15 01:15:18;;;;;;;;;;;;;;;1.72;48.15;99598.94;4409802;32;20085;-75
2022/03/15 01:17:45;;;;;;;23.75;8.00;;;;;;;2.10;47.80;99608.03;4409573;32;19981;-75
2022/03/15 01:20:12;;;;;;;;;;;;;;;1.73;48.88;99612.53;4408893;32;20145;-75
2022/03/15 01:22:39;;;;;;;33.58;13.77;;;;;;;2.55;46.86;99611.28;4409229;32;19974;-76
2022/03/15 01:25:06;;;;;;;;;;;;;;;2.60;47.11;99601.16;4409733;32;20090;-76
2022/03/15 01:27:34;;;;;;;82.15;24.48;;;;;;;2.48;47.53;99600.97;4409138;32;20035;-75
2022/03/15 01:30:01;;;;;;;69.43;26.42;;;;;;;2.51;47.76;99595.91;4409214;32;20158;-76
2022/03/15 01:32:28;;;;;;;69.70;27.00;;;;;;;2.03;48.49;99596.91;4409293;32;20120;-75
2022/03/15 01:34:55;;;;;;;;;;;;;;;2.79;46.86;99592.91;4409325;32;20150;-76
2022/03/15 01:37:22;;;;;;;66.47;24.80;;;;;;;2.85;46.76;99590.44;4409317;32;19988;-76
2022/03/15 01:39:49;;;;;;;;;;;;;;;2.65;47.13;99589.31;4409186;32;20070;-76
2022/03/15 01:42:16;;;;;;;87.85;34.60;;;;;;;3.03;46.56;99584.72;4409302;32;20045;-76
2022/03/15 01:44:47;;;;;;;;;;;;;;;3.04;46.96;99591.53;4409506;32;20149;-76
2022/03/15 01:47:14;;;;;;;64.37;25.98;;;;;;;2.70;48.22;99585.16;4408899;32;19970;-76
2022/03/15 01:49:41;;;;;;;;;;;;;;;2.41;48.71;99579.66;4409283;32;20100;-76
2022/03/15 01:52:15;;;;;;;69.35;28.00;;;;;;;2.70;47.40;99576.66;4409075;32;19977;-76
2022/03/15 01:54:44;;;;;;;91.30;35.75;;;;;;;2.71;47.48;99581.75;4407714;32;20457;-76
2022/03/15 01:57:11;;;;;;;87.12;34.75;;;;;;;2.31;48.61;99580.34;4408894;32;20082;-76
2022/03/15 01:59:39;;;;;;;73.22;29.40;;;;;;;2.55;48.29;99578.16;4408941;32;20580;-76
2022/03/15 02:02:06;;;;;;;59.13;23.17;;;;;;;2.56;48.12;99579.88;4408417;32;20098;-76
2022/03/15 02:04:36;;;;;;;64.55;26.58;;;;;;;2.11;49.46;99590.22;4408988;32;20086;-76
2022/03/15 02:07:09;;;;;;;63.00;24.55;;;;;;;1.69;50.79;99585.28;4408864;32;20153;-76
2022/03/15 02:09:36;;;;;;;49.70;21.02;;;;;;;2.17;49.44;99581.84;4407319;32;20165;-76
2022/03/15 02:12:04;;;;;;;44.28;18.87;;;;;;;2.33;48.64;99583.75;4407422;32;20441;-76
2022/03/15 02:14:31;;;;;;;52.67;21.42;;;;;;;2.45;48.07;99583.13;4408811;32;20484;-76
2022/03/15 02:16:58;;;;;;;38.55;15.68;;;;;;;2.51;47.93;99590.81;4408328;32;20125;-76
2022/03/15 02:19:27;;;;;;;29.33;12.63;;;;;;;2.60;47.48;99580.75;4408605;32;20140;-76
2022/03/15 02:21:58;;;;;;;30.65;13.38;;;;;;;2.38;47.25;99574.50;4407977;32;20141;-75
2022/03/15 02:24:25;;;;;;;28.70;13.68;;;;;;;2.67;46.71;99589.34;4407510;32;20122;-76
2022/03/15 02:26:52;;;;;;;34.65;14.55;;;;;;;2.36;47.57;99583.84;4408553;32;20144;-76
2022/03/15 02:29:19;;;;;;;;;;;;;;;2.35;47.78;99579.56;4408572;32;20121;-76
2022/03/15 02:31:47;;;;;;;75.47;29.02;;;;;;;2.67;47.74;99579.16;4409205;32;20031;-76
2022/03/15 02:34:16;;;;;;;66.80;28.50;;;;;;;2.49;49.05;99578.06;4410814;32;20134;-76
2022/03/15 02:36:44;;;;;;;62.97;26.60;;;;;;;2.64;48.99;99579.09;4410315;32;20094;-75
2022/03/15 02:39:11;;;;;;;46.10;21.75;;;;;;;2.70;48.83;99584.28;4410633;32;20098;-75
2022/03/15 02:41:38;;;;;;;49.08;20.20;;;;;;;2.60;48.33;99581.63;4410620;32;20142;-76
2022/03/15 02:44:04;;;;;;;;;;;;;;;2.04;49.45;99578.25;4409592;32;20467;-76
2022/03/15 02:46:32;;;;;;;70.00;29.23;;;;;;;2.33;49.05;99574.44;4410793;32;20370;-76
2022/03/15 02:48:59;;;;;;;66.75;29.25;;;;;;;2.66;48.89;99578.31;4409396;32;20087;-75
2022/03/15 02:51:26;;;;;;;54.03;24.30;;;;;;;2.19;50.45;99582.72;4410214;32;20106;-76
2022/03/15 02:53:56;;;;;;;44.03;17.02;;;;;;;2.48;49.90;99580.59;4410583;32;20115;-76
2022/03/15 02:56:23;;;;;;;44.75;18.58;;;;;;;2.53;49.14;99579.81;4410469;32;20090;-76
2022/03/15 02:58:49;;;;;;;;;;;;;;;2.06;50.47;99575.72;4410511;32;20141;-76
2022/03/15 03:01:16;;;;;;;36.55;15.25;;;;;;;2.24;50.00;99581.09;4410701;32;20045;-76
2022/03/15 03:03:44;;;;;;;35.72;16.30;;;;;;;2.30;49.36;99576.09;4410352;32;20369;-76
2022/03/15 03:06:10;;;;;;;;;;;;;;;2.07;50.07;99579.97;4410610;32;20094;-75
2022/03/15 03:08:37;;;;;;;30.62;12.80;;;;;;;2.03;50.12;99574.84;4410695;32;20033;-76
2022/03/15 03:11:04;;;;;;;26.90;11.90;;;;;;;2.35;49.51;99581.25;4410125;32;20429;-75
2022/03/15 03:13:31;;;;;;;;;;;;;;;2.49;49.18;99583.16;4410654;32;20154;-76
2022/03/15 03:16:00;;;;;;;26.55;10.93;;;;;;;2.15;49.87;99578.41;4410482;32;19965;-76
2022/03/15 03:18:32;;;;;;;21.17;9.65;;;;;;;2.31;49.82;99575.25;4410159;32;20093;-76
2022/03/15 03:21:04;;;;;;;22.37;9.93;;;;;;;2.49;49.18;99577.22;4410432;32;20097;-76
2022/03/15 03:23:34;;;;;;;20.52;8.60;;;;;;;2.38;49.32;99582.16;4410295;32;20453;-76
2022/03/15 03:26:02;;;;;;;18.95;9.00;;;;;;;2.33;49.17;99579.53;4410138;32;20091;-76
2022/03/15 03:28:33;;;;;;;18.98;8.52;;;;;;;2.08;49.89;99587.63;4409268;32;20497;-76
2022/03/15 03:31:00;;;;;;;20.33;9.15;;;;;;;1.53;51.51;99585.88;4410329;32;20438;-75
2022/03/15 03:33:27;;;;;;;21.08;9.43;;;;;;;1.54;51.98;99585.88;4408895;32;20574;-76
2022/03/15 03:35:54;;;;;;;;;;;;;;;1.26;53.14;99591.28;4410654;32;20551;-76
2022/03/15 03:38:21;;;;;;;18.70;8.45;;;;;;;1.16;54.04;99587.69;4410440;32;19966;-75
2022/03/15 03:40:48;;;;;;;;;;;;;;;1.52;53.40;99600.28;4410094;32;20192;-75
2022/03/15 03:43:15;;;;;;;20.15;8.57;;;;;;;1.40;53.96;99598.38;4409085;32;20003;-76
2022/03/15 03:45:41;;;;;;;;;;;;;;;1.53;53.44;99591.81;4410697;32;20148;-76
2022/03/15 03:48:08;;;;;;;19.12;7.72;;;;;;;1.88;52.36;99587.31;4410056;32;19966;-76
2022/03/15 03:50:36;;;;;;;20.90;8.68;;;;;;;1.30;54.06;99596.47;4408959;32;20106;-75
2022/03/15 03:53:03;;;;;;;17.80;8.00;;;;;;;1.81;52.56;99590.59;4409982;32;20459;-75
2022/03/15 03:55:30;;;;;;;20.70;9.27;;;;;;;2.09;51.37;99585.94;4410268;32;20082;-75
2022/03/15 03:57:58;;;;;;;21.48;8.98;;;;;;;2.24;50.55;99584.50;4410134;32;20107;-76
2022/03/15 04:00:26;;;;;;;19.33;8.02;;;;;;;2.01;51.15;99588.38;4409808;32;20106;-75
2022/03/15 04:02:54;;;;;;;19.10;8.93;;;;;;;2.08;50.98;99585.09;4410310;32;20481;-75
2022/03/15 04:05:22;;;;;;;20.95;8.90;;;;;;;1.87;51.57;99589.84;4410173;32;20086;-76
2022/03/15 04:07:49;;;;;;;21.20;9.43;;;;;;;2.01;51.22;99590.91;4409916;32;20157;-76
2022/03/15 04:10:21;;;;;;;27.87;11.43;;;;;;;2.05;51.19;99577.41;4410011;32;20368;-75
2022/03/15 04:12:48;;;;;;;30.37;14.85;;;;;;;1.83;51.69;99583.84;4408961;32;20120;-75
2022/03/15 04:15:16;;;;;;;;;;;;;;;2.21;50.76;99581.91;4410189;32;20173;-75
2022/03/15 04:17:43;;;;;;;30.90;13.68;;;;;;;1.85;51.92;99586.41;4410104;32;20317;-76
2022/03/15 04:20:10;;;;;;;;;;;;;;;1.82;52.25;99589.78;4410387;32;20157;-76
2022/03/15 04:22:37;;;;;;;25.27;11.68;;;;;;;1.91;52.20;99592.44;4409553;32;19982;-76
2022/03/15 04:25:04;;;;;;;26.37;12.30;;;;;;;1.98;51.82;99591.72;4410055;32;20089;-76
2022/03/15 04:27:31;;;;;;;31.52;12.60;;;;;;;1.85;51.80;99597.44;4409999;32;20456;-75
2022/03/15 04:29:58;;;;;;;27.45;12.57;;;;;;;2.06;51.62;99591.00;4409480;32;20484;-76
2022/03/15 04:32:25;;;;;;;;;;;;;;;1.92;51.61;99584.00;4410221;32;20098;-76
2022/03/15 04:34:52;;;;;;;24.15;11.10;;;;;;;1.92;51.69;99583.16;4410106;32;20350;-76
2022/03/15 04:37:19;;;;;;;24.10;10.95;;;;;;;1.87;51.57;99585.59;4409567;32;20144;-76
2022/03/15 04:39:47;;;;;;;28.10;12.32;;;;;;;2.60;49.27;99580.75;4409850;32;20094;-75
2022/03/15 04:42:14;;;;;;;23.38;11.48;;;;;;;2.14;50.24;99591.97;4409543;32;20090;-75
2022/03/15 04:44:41;;;;;;;;;;;;;;;1.71;51.57;99587.06;4410203;32;20124;-75
2022/03/15 04:47:08;;;;;;;22.37;9.73;;;;;;;2.37;49.10;99577.91;4409927;32;20332;-75
2022/03/15 04:49:35;;;;;;;21.58;11.02;;;;;;;2.35;48.68;99583.81;4409393;32;20118;-76
2022/03/15 04:52:02;;;;;;;22.80;11.45;;;;;;;2.05;49.81;99591.84;4409779;32;20370;-75
2022/03/15 04:54:30;;;;;;;28.40;12.85;;;;;;;2.16;49.66;99586.06;4409024;32;20137;-76
2022/03/15 04:56:57;;;;;;;31.52;13.52;;;;;;;2.00;50.42;99582.41;4409261;32;20104;-75
2022/03/15 04:59:24;;;;;;;22.95;11.45;;;;;;;1.80;50.97;99583.78;4409664;32;20501;-76
2022/03/15 05:01:51;;;;;;;23.95;11.30;;;;;;;1.79;51.18;99582.06;4409723;32;20085;-75
2022/03/15 05:04:18;;;;;;;20.33;9.93;;;;;;;1.71;51.54;99581.97;4409386;32;20089;-75
2022/03/15 05:06:45;;;;;;;;;;;;;;;2.09;50.60;99576.63;4410000;32;20081;-76
2022/03/15 05:09:12;;;;;;;21.10;9.50;;;;;;;2.20;49.87;99576.78;4409657;32;20316;-76
2022/03/15 05:11:44;;;;;;;;;;;;;;;2.06;50.62;99570.62;4409591;32;20149;-75
2022/03/15 05:14:11;;;;;;;24.75;10.35;;;;;;;2.45;49.10;99575.47;4409785;32;20001;-75
2022/03/15 05:16:37;;;;;;;;;;;;;;;2.24;49.42;99576.00;4409749;32;20085;-75
2022/03/15 05:19:04;;;;;;;43.42;12.27;;;;;;;2.05;50.18;99582.50;4409201;32;19985;-76
2022/03/15 05:21:31;;;;;;;36.13;11.93;;;;;;;2.06;50.50;99583.38;4395679;32;20102;-75
2022/03/15 05:23:58;;;;;;;;;;;;;;;2.48;49.61;99580.59;4409757;32;20133;-76
2022/03/15 05:26:25;;;;;;;25.67;10.18;;;;;;;2.27;50.06;99578.59;4408039;32;19981;-76
2022/03/15 05:28:52;;;;;;;;;;;;;;;2.24;50.31;99579.41;4409669;32;20480;-76
2022/03/15 05:31:22;;;;;;;33.75;12.05;;;;;;;2.23;50.41;99571.72;4409125;32;20387;-76
2022/03/15 05:33:49;;;;;;;28.23;13.38;;;;;;;2.46;50.00;99575.50;4409356;32;20095;-75
2022/03/15 05:36:17;;;;;;;35.58;14.68;;;;;;;2.70;49.27;99584.28;4409166;32;20421;-76
2022/03/15 05:38:44;;;;;;;29.87;13.40;;;;;;;2.97;48.34;99581.22;4408900;32;20409;-76
2022/03/15 05:41:11;;;;;;;25.77;12.48;;;;;;;3.10;47.63;99581.41;4409216;32;20159;-75
2022/03/15 05:43:53;;;;;;;33.33;15.93;;;;;;;3.52;46.67;99577.59;4409125;32;20116;-76
2022/03/15 05:46:20;;;;;;;36.70;15.55;;;;;;;3.51;47.27;99582.66;4408786;32;20151;-76
2022/03/15 05:48:47;;;;;;;27.05;12.35;;;;;;;3.81;47.48;99587.22;4409071;32;20115;-76
2022/03/15 05:51:14;;;;;;;;;;;;;;;3.54;47.82;99591.22;4409427;32;20488;-76
2022/03/15 05:53:41;;;;;;;28.77;13.00;;;;;;;3.88;46.33;99582.19;4408706;32;20061;-76
2022/03/15 05:56:08;;;;;;;;;;;;;;;3.93;46.55;99589.87;4409165;32;20086;-76
2022/03/15 05:58:35;;;;;;;23.70;10.50;;;;;;;3.80;47.92;99583.81;4409063;32;19981;-76
2022/03/15 06:01:03;;;;;;;22.73;9.77;;;;;;;3.99;46.57;99580.56;4407454;32;20500;-76
2022/03/15 06:03:30;;;;;;;20.48;9.48;;;;;;;3.42;46.85;99588.56;4408866;32;20800;-76
2022/03/15 06:05:57;;;;;;;20.55;9.23;;;;;;;4.03;45.99;99581.44;4408940;32;20499;-76
2022/03/15 06:08:24;;;;;;;22.60;8.13;;;;;;;4.55;44.57;99584.34;4410493;32;20493;-76
2022/03/15 06:10:51;;;;;;;;;;;;;;;4.88;43.53;99584.53;4410990;32;20169;-76
2022/03/15 06:13:18;;;;;;;18.83;8.35;;;;;;;5.27;42.65;99588.09;4411074;32;20403;-76
2022/03/15 06:15:44;;;;;;;;;;;;;;;5.64;41.37;99593.31;4410849;32;20122;-76
2022/03/15 06:18:11;;;;;;;20.35;8.85;;;;;;;5.98;40.89;99595.09;4410880;32;19969;-76
2022/03/15 06:20:38;;;;;;;;;;;;;;;6.48;40.00;99596.75;4410766;32;20086;-76
2022/03/15 06:23:05;;;;;;;18.80;8.77;;;;;;;7.01;38.35;99595.75;4410663;32;20370;-76
2022/03/15 06:25:32;;;;;;;;;;;;;;;7.31;37.97;99606.75;4397452;32;20074;-76
2022/03/15 06:27:59;;;;;;;17.17;8.63;;;;;;;7.85;37.15;99600.44;4410531;32;19978;-76
2022/03/15 06:30:26;;;;;;;17.77;8.95;;;;;;;8.10;37.09;99591.69;4410591;32;20510;-76
2022/03/15 06:32:53;;;;;;;19.50;9.38;;;;;;;8.16;35.95;99589.94;4410624;32;20150;-77
2022/03/15 06:35:20;;;;;;;22.95;10.10;;;;;;;8.66;34.86;99592.91;4410377;32;20115;-77
2022/03/15 06:37:49;;;;;;;19.42;8.85;;;;;;;9.07;33.42;99601.06;4410641;32;20485;-76
2022/03/15 06:40:21;;;;;;;18.80;9.02;;;;;;;9.41;32.69;99594.59;4410645;32;20160;-77
2022/03/15 06:42:48;;;;;;;19.37;9.75;;;;;;;10.25;32.18;99597.66;4410350;32;20090;-77
2022/03/15 06:45:15;;;;;;;19.30;10.27;;;;;;;11.04;31.06;99603.09;4410612;32;20107;-77
2022/03/15 06:47:42;;;;;;;19.17;10.10;;;;;;;11.46;30.97;99604.78;4410702;32;20098;-77
2022/03/15 06:50:12;;;;;;;;;;;;;;;11.84;29.97;99603.13;4410584;32;20101;-78
2022/03/15 06:52:40;;;;;;;20.02;10.35;;;;;;;12.49;29.85;99600.66;4410673;32;19974;-78
2022/03/15 06:55:08;;;;;;;19.73;9.43;;;;;;;13.07;28.21;99593.91;4410582;32;20103;-78
2022/03/15 06:57:36;;;;;;;23.65;11.32;;;;;;;13.87;27.65;99595.84;4410019;32;20094;-78
2022/03/15 07:00:08;;;;;;;21.25;11.25;;;;;;;14.64;25.34;99599.38;4410420;32;20500;-78
2022/03/15 07:02:35;;;;;;;21.50;11.25;;;;;;;14.35;26.17;99597.75;4396560;32;20124;-77
2022/03/15 07:05:03;;;;;;;20.70;10.45;;;;;;;14.92;25.67;99598.44;4410670;32;20086;-78
2022/03/15 07:07:30;;;;;;;24.10;11.82;;;;;;;15.60;25.06;99600.25;4410597;32;20101;-78
2022/03/15 07:09:57;;;;;;;22.77;11.57;;;;;;;16.42;23.74;99596.06;4408958;32;20493;-78
2022/03/15 07:12:24;;;;;;;21.75;12.10;;;;;;;16.44;23.86;99595.09;4410423;32;20149;-79
2022/03/15 07:14:51;;;;;;;21.42;11.85;;;;;;;17.35;22.92;99600.69;4409339;32;20082;-79
2022/03/15 07:17:19;;;;;;;22.62;12.35;;;;;;;17.49;22.79;99597.44;4409704;32;20106;-78
2022/03/15 07:19:46;;;;;;;29.23;13.15;;;;;;;16.63;23.66;99592.56;4410417;32;20110;-79
2022/03/15 07:22:13;;;;;;;24.98;12.52;;;;;;;16.40;24.24;99600.50;4410103;32;20440;-78
2022/03/15 07:24:40;;;;;;;25.35;13.38;;;;;;;16.86;24.40;99599.41;4410103;32;20360;-78
2022/03/15 07:27:07;;;;;;;29.37;14.77;;;;;;;16.58;24.84;99599.72;4410513;32;20113;-78
2022/03/15 07:29:34;;;;;;;24.77;13.98;;;;;;;16.63;23.92;99605.59;4410315;32;20102;-79
2022/03/15 07:32:02;;;;;;;23.02;13.30;;;;;;;16.92;23.30;99609.59;4409984;32;20508;-78
2022/03/15 07:34:29;;;;;;;25.15;13.95;;;;;;;16.53;23.64;99604.28;4410336;32;20157;-78
2022/03/15 07:36:56;;;;;;;25.45;14.30;;;;;;;16.26;23.26;99610.63;4409179;32;20142;-78
2022/03/15 07:39:23;;;;;;;24.40;13.88;;;;;;;16.51;21.76;99606.13;4409942;32;20413;-78
2022/03/15 07:41:51;;;;;;;25.17;14.05;;;;;;;16.18;22.21;99606.59;4410394;32;20456;-78
2022/03/15 07:44:18;;;;;;;26.95;15.32;;;;;;;16.54;22.10;99603.38;4409208;32;20090;-79
2022/03/15 07:46:48;;;;;;;26.58;15.02;;;;;;;15.97;22.39;99604.03;4409875;32;20082;-78
2022/03/15 07:49:20;;;;;;;28.12;15.10;;;;;;;15.89;22.65;99589.53;4410243;32;20094;-78
2022/03/15 07:51:48;;;;;;;27.67;14.98;;;;;;;15.61;23.06;99597.56;4409932;32;20074;-78
2022/03/15 07:54:16;;;;;;;25.92;15.10;;;;;;;16.39;22.25;99591.00;4410275;32;20098;-79
2022/03/15 07:56:43;;;;;;;28.45;16.17;;;;;;;16.32;22.00;99587.78;4410159;32;20161;-78
2022/03/15 07:59:10;;;;;;;31.62;16.95;;;;;;;16.40;22.60;99582.28;4409812;32;20119;-78
2022/03/15 08:01:37;;;;;;;33.67;17.17;;;;;;;16.47;22.12;99584.53;4410257;32;20118;-78
2022/03/15 08:04:05;;;;;;;26.25;15.90;;;;;;;16.17;22.47;99578.03;4410158;32;20077;-79
2022/03/15 08:06:35;;;;;;;30.33;16.30;;;;;;;15.52;22.83;99584.03;4409839;32;20168;-78
2022/03/15 08:09:05;;;;;;;30.92;16.37;;;;;;;16.27;22.42;99575.88;4410062;32;20179;-78
2022/03/15 08:11:33;;;;;;;33.25;17.27;;;;;;;16.20;22.65;99568.31;4410183;32;20565;-78
2022/03/15 08:13:59;;;;;;;29.35;16.02;;;;;;;16.16;22.46;99578.91;4409764;32;20134;-78
2022/03/15 08:16:27;;;;;;;25.88;15.27;;;;;;;16.99;21.80;99569.28;4405240;32;155444;-79
2022/03/15 08:18:55;;;;;;;27.40;16.45;;;;;;;17.97;21.41;99575.19;4409989;32;20098;-78
2022/03/15 08:21:22;;;;;;;33.10;16.20;;;;;;;17.80;21.71;99569.91;4409871;32;20156;-78
2022/03/15 08:23:50;;;;;;;30.98;15.90;;;;;;;17.93;21.31;99565.78;4409787;32;20108;-78
2022/03/15 08:26:17;;;;;;;28.30;16.67;;;;;;;17.04;22.43;99571.69;4409969;32;20133;-79
2022/03/15 08:28:48;;;;;;;25.45;14.68;;;;;;;17.34;22.59;99575.50;4408937;32;20162;-78
2022/03/15 08:31:16;;;;;;;27.10;15.05;;;;;;;17.73;21.79;99561.53;4409816;32;20145;-78
2022/03/15 08:33:44;;;;;;;26.83;15.43;;;;;;;17.39;22.79;99564.84;4409680;32;20121;-77
2022/03/15 08:36:13;;;;;;;25.35;15.15;;;;;;;17.21;22.65;99557.88;4410004;32;20094;-78
2022/03/15 08:38:41;;;;;;;24.87;14.87;;;;;;;17.61;21.98;99549.88;4410098;32;20102;-79
2022/03/15 08:41:08;;;;;;;25.45;14.35;;;;;;;17.26;22.54;99555.91;4408512;32;20449;-78
2022/03/15 08:43:36;;;;;;;25.42;14.30;;;;;;;17.55;22.58;99563.22;4409933;32;20082;-78
2022/03/15 08:46:03;;;;;;;27.42;15.55;;;;;;;17.34;22.91;99559.87;4409954;32;20112;-79
2022/03/15 08:48:31;;;;;;;26.62;14.55;;;;;;;17.23;22.82;99556.06;4409631;32;20137;-78
2022/03/15 08:51:00;;;;;;;25.25;14.45;;;;;;;17.39;22.98;99564.00;4396086;32;20086;-78
2022/03/15 08:53:29;;;;;;;23.23;13.90;;;;;;;17.53;22.30;99554.59;4409980;32;20109;-78
2022/03/15 08:55:56;;;;;;;23.40;14.25;;;;;;;18.42;21.59;99558.13;4408411;32;20098;-78
2022/03/15 08:58:23;;;;;;;20.65;11.93;;;;;;;18.92;20.85;99554.69;4408634;32;20158;-78
2022/03/15 09:00:51;;;;;;;16.92;9.02;;;;;;;18.93;23.09;99548.56;4409630;32;20184;-78
2022/03/15 09:03:18;;;;;;;14.63;8.68;;;;;;;18.47;25.68;99554.34;4408324;32;20081;-78
2022/03/15 09:05:46;;;;;;;18.52;9.45;;;;;;;16.43;27.24;99548.28;4409772;32;20109;-78
2022/03/15 09:08:15;;;;;;;16.60;8.73;;;;;;;16.79;27.17;99545.84;4409786;32;20098;-78
2022/03/15 09:10:44;;;;;;;15.88;8.82;;;;;;;16.90;27.67;99551.44;4409262;32;20108;-78
2022/03/15 09:13:11;;;;;;;16.02;8.32;;;;;;;16.42;28.59;99551.78;4409686;32;20141;-78
2022/03/15 09:15:38;;;;;;;17.42;9.23;;;;;;;15.60;29.97;99551.66;4409681;32;20129;-78
2022/03/15 09:18:06;;;;;;;16.50;8.15;;;;;;;15.13;31.15;99553.47;4409212;32;20149;-78
2022/03/15 09:20:33;;;;;;;16.10;8.57;;;;;;;15.37;32.09;99562.06;4409475;32;20108;-78
2022/03/15 09:23:00;;;;;;;16.37;8.18;;;;;;;15.18;31.93;99559.31;4408892;32;20082;-77
2022/03/15 09:25:27;;;;;;;18.70;8.82;;;;;;;14.95;32.54;99556.72;4409378;32;20157;-78
2022/03/15 09:27:54;;;;;;;17.12;9.55;;;;;;;15.49;31.58;99559.00;4409589;32;20129;-78
2022/03/15 09:30:21;;;;;;;18.60;10.25;;;;;;;15.91;29.48;99553.03;4409024;32;20137;-78
2022/03/15 09:32:48;;;;;;;22.48;10.40;;;;;;;15.87;28.51;99557.53;4409468;32;20070;-78
2022/03/15 09:35:15;;;;;;;20.65;10.68;;;;;;;15.91;27.45;99547.84;4409432;32;20161;-78
2022/03/15 09:37:46;;;;;;;19.15;10.70;;;;;;;15.42;27.87;99548.88;4407890;32;20178;-78
2022/03/15 09:40:13;;;;;;;20.40;11.18;;;;;;;15.77;27.33;99545.81;4409375;32;20094;-78
2022/03/15 09:42:41;;;;;;;19.90;11.15;;;;;;;16.03;26.70;99536.06;4410031;32;20157;-78
2022/03/15 09:45:08;;;;;;;18.50;10.60;;;;;;;15.46;27.61;99538.31;4410822;32;20108;-78
2022/03/15 09:47:36;;;;;;;19.67;10.60;;;;;;;15.99;25.85;99529.31;4411143;32;20161;-78
2022/03/15 09:50:05;;;;;;;19.52;10.93;;;;;;;15.45;25.94;99522.78;4409786;32;20441;-78
2022/03/15 09:52:34;;;;;;;20.00;10.60;;;;;;;15.30;26.81;99526.81;4410664;32;20141;-78
2022/03/15 09:55:02;;;;;;;18.37;10.77;;;;;;;15.10;27.39;99526.72;4411119;32;20090;-78
2022/03/15 09:57:31;;;;;;;17.35;9.90;;;;;;;14.84;27.72;99523.34;4411046;32;20098;-77
2022/03/15 09:59:59;;;;;;;20.25;10.48;;;;;;;14.89;28.42;99515.38;4410529;32;20184;-78
2022/03/15 10:02:26;;;;;;;16.90;10.00;;;;;;;15.15;28.01;99519.59;4409917;32;20128;-78
2022/03/15 10:04:54;;;;;;;17.42;9.88;;;;;;;15.19;27.67;99503.81;4411040;32;20441;-78
2022/03/15 10:07:21;;;;;;;18.73;9.90;;;;;;;15.30;27.65;99496.44;4411048;32;20187;-77
2022/03/15 10:09:48;;;;;;;20.75;10.10;;;;;;;15.01;28.52;99500.19;4410846;32;20176;-78
2022/03/15 10:12:15;;;;;;;18.98;8.77;;;;;;;14.15;29.95;99497.19;4409473;32;20093;-77
2022/03/15 10:14:47;;;;;;;17.30;8.48;;;;;;;14.32;30.61;99498.34;4410930;32;20801;-77
2022/03/15 10:17:16;;;;;;;18.02;9.00;;;;;;;14.91;30.95;99493.62;4411071;32;20362;-78
2022/03/15 10:19:53;;;;;;;14.25;8.73;;;;;;;15.14;31.40;99481.50;4410558;32;20231;-78
2022/03/15 10:22:22;;;;;;;15.30;8.35;;;;;;;15.12;31.96;99472.94;4410440;32;20522;-78
2022/03/15 10:24:49;;;;;;;15.68;8.38;;;;;;;15.60;31.26;99477.97;4409916;32;20109;-78
2022/03/15 10:27:16;;;;;;;16.73;8.10;;;;;;;15.79;31.26;99457.25;4410606;32;20106;-77
2022/03/15 10:29:43;;;;;;;16.52;8.13;;;;;;;15.80;30.16;99465.00;4409630;32;20104;-78
2022/03/15 10:32:11;;;;;;;16.85;8.32;;;;;;;15.93;30.62;99448.84;4410825;32;20107;-78
2022/03/15 10:34:38;;;;;;;15.48;8.27;;;;;;;16.16;30.45;99446.97;4410542;32;20086;-78
2022/03/15 10:37:05;;;;;;;17.15;9.32;;;;;;;16.27;30.11;99445.66;4410859;32;20165;-77
2022/03/15 10:39:32;;;;;;;14.77;8.32;;;;;;;16.12;29.62;99436.75;4409535;32;20094;-77
2022/03/15 10:42:03;;;;;;;16.90;8.27;;;;;;;15.58;30.75;99438.13;4410448;32;20117;-77
2022/03/15 10:44:32;;;;;;;16.60;9.05;;;;;;;15.78;29.66;99434.75;4410925;32;20098;-77
2022/03/15 10:47:01;;;;;;;14.95;8.90;;;;;;;16.10;29.96;99431.63;4410774;32;20106;-77
2022/03/15 10:49:29;;;;;;;15.88;8.50;;;;;;;16.19;30.09;99438.19;4410700;32;20098;-78
2022/03/15 10:51:57;;;;;;;16.50;9.48;;;;;;;16.03;29.79;99424.97;4409045;32;20380;-78
2022/03/15 10:54:26;;;;;;;18.70;9.73;;;;;;;16.40;28.64;99428.59;4409286;32;20097;-78
2022/03/15 10:56:57;;;;;;;21.17;9.90;;;;;;;16.48;28.90;99424.72;4410788;32;20094;-78
2022/03/15 10:59:25;;;;;;;18.40;10.07;;;;;;;16.15;30.10;99426.19;4410623;32;20108;-78
2022/03/15 11:01:52;;;;;;;17.37;9.80;;;;;;;14.48;31.54;99429.44;4410343;32;20197;-78
2022/03/15 11:04:20;;;;;;;20.08;9.75;;;;;;;14.51;32.08;99418.91;4410599;32;20094;-77
2022/03/15 11:06:51;;;;;;;16.50;9.25;;;;;;;15.56;31.00;99406.13;4410693;32;20153;-78
2022/03/15 11:09:22;;;;;;;16.73;9.55;;;;;;;16.14;30.40;99407.13;4410399;32;20105;-78
2022/03/15 11:12:06;;;;;;;16.85;9.00;;;;;;;16.64;29.57;99398.81;4410626;32;20338;-77
2022/03/15 11:14:47;;;;;;;18.08;9.68;;;;;;;16.51;29.25;99392.47;4409577;32;20115;-77
2022/03/15 11:17:24;;;;;;;21.65;10.02;;;;;;;15.61;30.62;99378.19;4410431;32;20106;-78
2022/03/15 11:19:58;;;;;;;18.23;9.13;;;;;;;15.45;30.63;99371.94;4410466;32;20111;-77
2022/03/15 11:22:34;;;;;;;18.90;9.90;;;;;;;15.04;31.19;99377.88;4410000;32;20144;-77
2022/03/15 11:25:15;;;;;;;20.42;10.07;;;;;;;14.93;31.55;99367.06;4409578;32;20158;-77
2022/03/15 11:27:43;;;;;;;17.37;9.70;;;;;;;15.11;30.96;99362.91;4409444;32;20154;-77
2022/03/15 11:30:19;;;;;;;19.67;9.30;;;;;;;15.01;31.32;99356.38;4408839;32;20104;-77
2022/03/15 11:32:46;;;;;;;18.48;9.20;;;;;;;15.48;31.25;99354.44;4409358;32;20108;-77
2022/03/15 11:35:22;;;;;;;19.05;9.45;;;;;;;15.30;31.04;99348.22;4410596;32;20533;-77
2022/03/15 11:37:52;;;;;;;20.48;9.75;;;;;;;15.19;31.22;99354.78;4410101;32;20101;-77